createdAt,value
2022-12-03T00:01:42.796Z,96186.16
2022-12-03T00:04:28.720Z,96196.84
2022-12-03T00:07:14.595Z,96173.09
2022-12-03T00:10:00.464Z,96168.75
2022-12-03T00:12:46.740Z,96187.63
2022-12-03T00:15:32.975Z,96183.94
2022-12-03T00:18:18.832Z,96170.06
2022-12-03T00:21:04.824Z,96188.63
2022-12-03T00:23:50.913Z,96197.63
2022-12-03T00:26:36.999Z,96198.97
2022-12-03T00:29:22.977Z,96207.47
2022-12-03T00:32:08.811Z,96210.66
2022-12-03T00:34:54.800Z,96211.00
2022-12-03T00:37:40.799Z,96201.50
2022-12-03T00:40:26.784Z,96190.28
2022-12-03T00:43:12.913Z,96206.47
2022-12-03T00:45:58.926Z,96201.97
2022-12-03T00:48:44.762Z,96200.47
2022-12-03T00:51:32.593Z,96220.19
2022-12-03T00:54:18.449Z,96213.00
2022-12-03T00:57:04.510Z,96218.00
2022-12-03T00:59:50.776Z,96203.16
2022-12-03T01:02:36.666Z,96203.63
2022-12-03T01:05:22.690Z,96214.31
2022-12-03T01:08:08.442Z,96215.19
2022-12-03T01:10:54.367Z,96219.19
2022-12-03T01:13:40.301Z,96223.50
2022-12-03T01:16:26.289Z,96223.03
2022-12-03T01:19:16.005Z,96234.22
2022-12-03T01:22:02.533Z,96220.84
2022-12-03T01:24:48.473Z,96211.16
2022-12-03T01:27:34.266Z,96206.81
2022-12-03T01:30:20.317Z,96214.34
2022-12-03T01:33:06.425Z,96207.16
2022-12-03T01:35:52.384Z,96212.03
2022-12-03T01:38:38.228Z,96213.69
2022-12-03T01:41:24.824Z,96220.69
2022-12-03T01:44:32.600Z,96234.38
2022-12-03T01:47:20.601Z,96227.66
2022-12-03T01:50:34.629Z,96223.16
2022-12-03T01:53:20.964Z,96218.34
2022-12-03T01:56:07.205Z,96194.13
2022-12-03T01:58:53.175Z,96192.97
2022-12-03T02:01:39.215Z,96206.47
2022-12-03T02:04:24.991Z,96203.81
2022-12-03T02:07:31.572Z,96187.75
2022-12-03T02:10:20.135Z,96209.97
2022-12-03T02:13:10.431Z,96208.97
2022-12-03T02:15:56.560Z,96191.63
2022-12-03T02:18:42.849Z,96185.78
2022-12-03T02:21:34.896Z,96195.47
2022-12-03T02:24:39.326Z,96208.50
2022-12-03T02:27:27.208Z,96197.81
2022-12-03T02:30:15.224Z,96196.81
2022-12-03T02:33:01.389Z,96183.28
2022-12-03T02:35:47.624Z,96198.13
2022-12-03T02:38:35.078Z,96193.78
2022-12-03T02:41:40.240Z,96210.34
2022-12-03T02:44:26.385Z,96213.97
2022-12-03T02:47:12.686Z,96213.16
2022-12-03T02:49:58.921Z,96219.50
2022-12-03T02:52:46.714Z,96209.63
2022-12-03T02:55:37.064Z,96188.59
2022-12-03T02:58:24.520Z,96213.50
2022-12-03T03:01:10.970Z,96196.59
2022-12-03T03:03:57.636Z,96216.81
2022-12-03T03:06:43.547Z,96215.47
2022-12-03T03:09:29.349Z,96205.47
2022-12-03T03:12:15.383Z,96201.63
2022-12-03T03:15:01.426Z,96217.50
2022-12-03T03:17:47.475Z,96202.47
2022-12-03T03:20:34.163Z,96200.31
2022-12-03T03:23:22.780Z,96181.94
2022-12-03T03:26:11.032Z,96209.16
2022-12-03T03:29:00.026Z,96205.81
2022-12-03T03:31:47.741Z,96184.94
2022-12-03T03:34:34.133Z,96180.63
2022-12-03T03:37:20.300Z,96200.00
2022-12-03T03:40:07.307Z,96194.78
2022-12-03T03:42:53.618Z,96197.47
2022-12-03T03:45:39.653Z,96178.09
2022-12-03T03:48:25.753Z,96195.50
2022-12-03T03:51:12.770Z,96199.66
2022-12-03T03:53:58.864Z,96194.66
2022-12-03T03:56:44.839Z,96205.16
2022-12-03T03:59:30.947Z,96193.47
2022-12-03T04:02:21.361Z,96212.34
2022-12-03T04:05:08.246Z,96217.00
2022-12-03T04:07:54.429Z,96213.00
2022-12-03T04:10:58.750Z,96211.66
2022-12-03T04:13:45.048Z,96211.00
2022-12-03T04:16:31.457Z,96219.53
2022-12-03T04:19:17.652Z,96204.81
2022-12-03T04:22:22.443Z,96205.66
2022-12-03T04:25:28.681Z,96211.81
2022-12-03T04:28:33.187Z,96209.50
2022-12-03T04:31:37.886Z,96201.47
2022-12-03T04:34:42.874Z,96200.09
2022-12-03T04:37:28.788Z,96219.31
2022-12-03T04:40:33.330Z,96210.78
2022-12-03T04:43:19.787Z,96228.50
2022-12-03T04:46:05.935Z,96230.50
2022-12-03T04:48:52.075Z,96234.00
2022-12-03T04:51:38.004Z,96242.53
2022-12-03T04:54:23.964Z,96233.00
2022-12-03T04:57:10.815Z,96226.00
2022-12-03T04:59:57.054Z,96229.50
2022-12-03T05:02:42.836Z,96221.66
2022-12-03T05:05:28.741Z,96247.72
2022-12-03T05:08:14.600Z,96225.00
2022-12-03T05:11:00.484Z,96223.16
2022-12-03T05:13:46.530Z,96241.41
2022-12-03T05:16:32.512Z,96222.34
2022-12-03T05:19:18.539Z,96248.91
2022-12-03T05:22:04.382Z,96243.56
2022-12-03T05:24:50.401Z,96239.34
2022-12-03T05:27:37.248Z,96226.66
2022-12-03T05:30:23.291Z,96242.38
2022-12-03T05:33:09.534Z,96240.38
2022-12-03T05:35:55.660Z,96255.06
2022-12-03T05:38:41.480Z,96259.56
2022-12-03T05:41:45.834Z,96256.56
2022-12-03T05:44:32.070Z,96247.53
2022-12-03T05:47:17.797Z,96265.75
2022-12-03T05:50:03.916Z,96249.22
2022-12-03T05:52:50.366Z,96267.41
2022-12-03T05:55:36.761Z,96250.88
2022-12-03T05:58:22.750Z,96251.41
2022-12-03T06:01:08.683Z,96252.22
2022-12-03T06:03:54.804Z,96267.09
2022-12-03T06:06:40.659Z,96256.91
2022-12-03T06:09:26.432Z,96258.56
2022-12-03T06:12:12.478Z,96249.22
2022-12-03T06:14:59.632Z,96268.75
2022-12-03T06:17:46.989Z,96270.13
2022-12-03T06:20:32.973Z,96277.13
2022-12-03T06:23:18.947Z,96273.44
2022-12-03T06:26:04.838Z,96278.97
2022-12-03T06:28:50.854Z,96279.97
2022-12-03T06:31:37.028Z,96269.44
2022-12-03T06:34:23.165Z,96266.94
2022-12-03T06:37:09.075Z,96279.47
2022-12-03T06:39:54.886Z,96269.91
2022-12-03T06:42:40.806Z,96278.66
2022-12-03T06:45:26.824Z,96278.47
2022-12-03T06:48:12.665Z,96282.63
2022-12-03T06:51:13.654Z,96287.16
2022-12-03T06:53:59.587Z,96285.66
2022-12-03T06:56:45.829Z,96298.34
2022-12-03T06:59:34.200Z,96299.03
2022-12-03T07:02:20.192Z,96300.72
2022-12-03T07:05:06.568Z,96301.38
2022-12-03T07:07:55.342Z,96296.88
2022-12-03T07:10:41.676Z,96308.59
2022-12-03T07:13:27.623Z,96301.88
2022-12-03T07:16:13.494Z,96312.41
2022-12-03T07:18:59.840Z,96316.59
2022-12-03T07:21:45.806Z,96318.44
2022-12-03T07:24:32.199Z,96320.25
2022-12-03T07:27:18.097Z,96310.06
2022-12-03T07:30:05.668Z,96304.22
2022-12-03T07:32:51.953Z,96325.09
2022-12-03T07:35:38.201Z,96309.72
2022-12-03T07:38:24.192Z,96326.59
2022-12-03T07:41:10.133Z,96298.34
2022-12-03T07:43:56.072Z,96322.78
2022-12-03T07:46:42.490Z,96309.06
2022-12-03T07:49:28.722Z,96300.88
2022-12-03T07:52:14.948Z,96312.75
2022-12-03T07:55:01.066Z,96327.31
2022-12-03T07:57:46.762Z,96322.13
2022-12-03T08:00:34.353Z,96303.38
2022-12-03T08:03:20.774Z,96324.13
2022-12-03T08:06:07.102Z,96329.47
2022-12-03T08:08:53.195Z,96311.59
2022-12-03T08:11:39.178Z,96329.16
2022-12-03T08:14:25.683Z,96329.31
2022-12-03T08:17:13.679Z,96326.31
2022-12-03T08:20:00.016Z,96336.16
2022-12-03T08:22:48.700Z,96332.34
2022-12-03T08:25:35.009Z,96335.69
2022-12-03T08:28:28.121Z,96310.09
2022-12-03T08:31:20.017Z,96331.16
2022-12-03T08:34:18.763Z,96336.69
2022-12-03T08:37:13.657Z,96334.88
2022-12-03T08:40:00.141Z,96339.88
2022-12-03T13:52:47.304Z,96176.34
2022-12-03T13:55:33.553Z,96173.06
2022-12-03T13:58:19.521Z,96180.38
2022-12-03T14:01:06.398Z,96181.13
2022-12-03T14:03:52.459Z,96185.00
2022-12-03T14:06:38.841Z,96164.47
2022-12-03T14:09:25.270Z,96160.13
2022-12-03T14:12:26.873Z,96169.44
2022-12-03T14:15:13.079Z,96158.84
2022-12-03T14:17:59.447Z,96156.63
2022-12-03T14:20:45.277Z,96158.13
2022-12-03T14:23:31.091Z,96161.22
2022-12-03T14:26:17.074Z,96173.91
2022-12-03T14:29:08.431Z,96177.56
2022-12-03T14:31:54.902Z,96177.56
2022-12-03T14:34:41.244Z,96161.69
2022-12-03T14:37:27.106Z,96166.03
2022-12-03T14:40:17.929Z,96184.38
2022-12-03T14:43:06.983Z,96163.16
2022-12-03T14:45:53.103Z,96188.56
2022-12-03T14:48:40.707Z,96182.53
2022-12-03T14:51:27.352Z,96181.88
2022-12-03T14:54:14.241Z,96146.84
2022-12-03T14:57:00.948Z,96200.09
2022-12-03T14:59:47.265Z,96191.41
2022-12-03T15:02:33.242Z,96195.59
2022-12-03T15:05:26.612Z,96176.41
2022-12-03T15:08:14.856Z,96190.94
2022-12-03T15:11:01.233Z,96196.59
2022-12-03T15:13:47.359Z,96191.41
2022-12-03T15:16:33.523Z,96177.53
2022-12-03T15:19:19.240Z,96190.56
2022-12-03T15:22:05.175Z,96184.75
2022-12-03T15:24:51.148Z,96174.72
2022-12-03T15:27:37.067Z,96176.88
2022-12-03T15:30:23.038Z,96185.91
2022-12-03T15:33:09.295Z,96197.63
2022-12-03T15:35:55.465Z,96191.09
2022-12-03T15:38:41.582Z,96199.63
2022-12-03T15:41:29.542Z,96194.28
2022-12-03T15:44:15.550Z,96199.50
2022-12-03T15:47:01.526Z,96206.50
2022-12-03T15:49:48.585Z,96209.00
2022-12-03T15:52:34.929Z,96200.66
2022-12-03T15:55:21.376Z,96205.19
2022-12-03T15:58:07.622Z,96203.53
2022-12-03T16:00:53.792Z,96208.34
2022-12-03T16:03:40.481Z,96197.81
2022-12-03T16:06:26.315Z,96209.00
2022-12-03T16:09:12.780Z,96209.00
2022-12-03T16:11:59.815Z,96207.53
2022-12-03T16:14:46.341Z,96202.63
2022-12-03T16:17:32.876Z,96220.19
2022-12-03T16:20:19.720Z,96202.31
2022-12-03T16:23:06.392Z,96224.41
2022-12-03T16:25:54.155Z,96202.31
2022-12-03T16:28:42.230Z,96193.00
2022-12-03T16:31:29.863Z,96204.88
2022-12-03T16:34:17.632Z,96217.41
2022-12-03T16:37:05.499Z,96215.06
2022-12-03T16:39:55.408Z,96205.06
2022-12-03T16:42:43.346Z,96204.22
2022-12-03T16:45:30.538Z,96228.44
2022-12-03T16:48:19.425Z,96223.63
2022-12-03T16:51:07.290Z,96221.78
2022-12-03T16:53:55.913Z,96224.31
2022-12-03T16:56:43.151Z,96207.63
2022-12-03T16:59:30.415Z,96203.44
2022-12-03T17:02:19.336Z,96222.16
2022-12-03T17:05:07.371Z,96225.50
2022-12-03T17:07:56.242Z,96212.81
2022-12-03T17:10:44.562Z,96198.97
2022-12-03T17:13:35.781Z,96233.38
2022-12-03T17:16:24.413Z,96211.97
2022-12-03T17:19:12.129Z,96223.84
2022-12-03T17:22:00.472Z,96225.34
2022-12-03T17:24:51.302Z,96231.91
2022-12-03T17:27:44.795Z,96226.38
2022-12-03T17:30:32.733Z,96216.84
2022-12-03T17:33:20.151Z,96224.19
2022-12-03T17:36:07.623Z,96218.16
2022-12-03T17:38:55.098Z,96208.13
2022-12-03T17:41:42.006Z,96210.63
2022-12-03T17:44:29.169Z,96212.47
2022-12-03T17:47:16.530Z,96214.31
2022-12-03T17:50:07.707Z,96236.19
2022-12-03T17:52:54.967Z,96223.84
2022-12-03T17:55:44.895Z,96199.94
2022-12-03T17:58:32.946Z,96219.16
2022-12-03T18:01:20.435Z,96207.13
2022-12-03T18:04:08.527Z,96218.78
2022-12-03T18:07:00.693Z,96213.44
2022-12-03T18:09:49.622Z,96214.63
2022-12-03T18:12:36.855Z,96216.63
2022-12-03T18:15:26.043Z,96223.31
2022-12-03T18:18:16.017Z,96215.81
2022-12-03T18:21:04.841Z,96222.66
2022-12-03T18:23:53.357Z,96217.81
2022-12-03T18:26:40.140Z,96226.88
2022-12-03T18:29:25.894Z,96232.53
2022-12-03T18:32:27.895Z,96229.19
2022-12-03T18:35:15.449Z,96227.84
2022-12-03T18:38:01.653Z,96232.56
2022-12-03T18:40:48.664Z,96226.00
2022-12-03T18:43:35.015Z,96240.06
2022-12-03T18:49:27.168Z,96231.72
2022-12-03T18:52:19.137Z,96229.88
2022-12-03T18:55:06.830Z,96235.03
2022-12-03T18:57:52.889Z,96229.22
2022-12-03T19:00:39.474Z,96245.09
2022-12-03T19:03:25.677Z,96241.41
2022-12-03T19:06:20.197Z,96247.59
2022-12-03T19:09:06.811Z,96239.88
2022-12-03T19:11:53.572Z,96244.72
2022-12-03T19:14:39.639Z,96238.41
2022-12-03T19:17:27.306Z,96237.19
2022-12-03T19:20:13.301Z,96234.72
2022-12-03T19:22:59.432Z,96241.22
2022-12-03T19:25:58.041Z,96253.44
2022-12-03T19:28:44.017Z,96243.59
2022-12-03T19:31:33.371Z,96248.59
2022-12-03T19:34:19.766Z,96249.25
2022-12-03T19:37:05.882Z,96223.72
2022-12-03T19:39:55.170Z,96235.25
2022-12-03T19:42:41.782Z,96237.56
2022-12-03T19:45:28.079Z,96241.56
2022-12-03T19:48:14.152Z,96240.56
2022-12-03T19:51:19.802Z,96237.72
2022-12-03T19:54:10.232Z,96254.09
2022-12-03T19:56:56.153Z,96251.09
2022-12-03T19:59:43.135Z,96245.44
2022-12-03T20:02:29.767Z,96241.56
2022-12-03T20:05:15.813Z,96241.22
2022-12-03T20:08:01.983Z,96244.22
2022-12-03T20:10:48.111Z,96250.59
2022-12-03T20:13:36.524Z,96252.94
2022-12-03T20:16:23.954Z,96247.59
2022-12-03T20:19:12.702Z,96251.09
2022-12-03T20:22:02.725Z,96257.59
2022-12-03T20:24:49.320Z,96268.69
2022-12-03T20:27:35.589Z,96255.13
2022-12-03T20:30:21.761Z,96256.66
2022-12-03T20:33:11.148Z,96259.81
2022-12-03T20:35:57.630Z,96260.00
2022-12-03T20:38:44.248Z,96252.94
2022-12-03T20:41:30.755Z,96251.81
2022-12-03T20:44:16.607Z,96256.66
2022-12-03T20:47:02.707Z,96249.44
2022-12-03T20:49:48.668Z,96266.34
2022-12-03T20:52:34.635Z,96262.84
2022-12-03T20:55:20.814Z,96259.84
2022-12-03T20:58:06.679Z,96257.84
2022-12-03T21:00:52.817Z,96263.34
2022-12-03T21:03:39.091Z,96261.03
2022-12-03T21:06:27.043Z,96274.41
2022-12-03T21:09:13.565Z,96262.38
2022-12-03T21:11:59.551Z,96280.25
2022-12-03T21:14:45.660Z,96278.41
2022-12-03T21:17:32.021Z,96255.03
2022-12-03T21:20:21.218Z,96265.69
2022-12-03T21:23:07.766Z,96253.66
2022-12-03T21:25:55.189Z,96269.72
2022-12-03T21:28:46.276Z,96257.00
2022-12-03T21:31:32.680Z,96254.16
2022-12-03T21:34:19.088Z,96250.78
2022-12-03T21:37:05.381Z,96257.84
2022-12-03T21:39:51.875Z,96225.91
2022-12-03T21:42:38.167Z,96223.25
2022-12-03T21:45:25.092Z,96241.94
2022-12-03T21:48:12.094Z,96245.63
2022-12-03T21:51:04.787Z,96252.97
2022-12-03T21:53:51.023Z,96257.16
2022-12-03T21:56:36.984Z,96233.25
2022-12-03T21:59:23.675Z,96245.63
2022-12-03T22:02:10.756Z,96239.06
2022-12-03T22:04:57.192Z,96243.59
2022-12-03T22:07:43.338Z,96230.91
2022-12-03T22:10:29.460Z,96242.25
2022-12-03T22:13:15.301Z,96223.72
2022-12-03T22:16:07.518Z,96244.75
2022-12-03T22:18:54.357Z,96244.59
2022-12-03T22:21:40.355Z,96244.09
2022-12-03T22:24:26.286Z,96244.91
2022-12-03T22:27:12.887Z,96243.91
2022-12-03T22:29:58.699Z,96238.75
2022-12-03T22:32:44.723Z,96235.88
2022-12-03T22:35:30.605Z,96240.91
2022-12-03T22:38:16.518Z,96209.50
2022-12-03T22:41:07.323Z,96222.19
2022-12-03T22:43:53.509Z,96215.84
2022-12-03T22:46:39.482Z,96228.72
2022-12-03T22:49:25.503Z,96230.41
2022-12-03T22:52:11.563Z,96227.22
2022-12-03T22:54:57.463Z,96227.06
2022-12-03T22:57:43.448Z,96216.19
2022-12-03T23:00:35.317Z,96221.38
2022-12-03T23:03:21.685Z,96235.44
2022-12-03T23:06:11.966Z,96226.91
2022-12-03T23:08:58.934Z,96212.69
2022-12-03T23:11:45.430Z,96227.22
2022-12-03T23:14:31.554Z,96225.88
2022-12-03T23:17:17.478Z,96218.88
2022-12-03T23:20:04.072Z,96223.38
2022-12-03T23:22:50.935Z,96224.91
2022-12-03T23:25:37.478Z,96215.69
2022-12-03T23:28:23.442Z,96225.22
2022-12-03T23:31:27.788Z,96219.38
2022-12-03T23:34:14.059Z,96227.59
2022-12-03T23:36:59.859Z,96209.88
2022-12-03T23:39:48.148Z,96206.50
2022-12-03T23:42:34.347Z,96208.84
2022-12-03T23:45:20.436Z,96211.72
2022-12-03T23:48:06.336Z,96217.03
2022-12-03T23:50:52.358Z,96209.34
2022-12-03T23:53:38.501Z,96190.31
2022-12-03T23:56:27.204Z,96179.63
2022-12-03T23:59:13.215Z,96201.66
